Time;durP1;ratioP1;P1;durP2;ratioP2;P2;SDS_P1;SDS_P2;PMS_P1;PMS_P2;Temp;Humidity;BMP_temperature;BMP_pressure;BME280_temperature;BME280_humidity;BME280_pressure;Samples;Min_cycle;Max_cycle;Signal;HPM_P1;HPM_P2
2021/11/07 00:01:14;;;;;;;5.38;4.78;;;;;;;;;;5077711;28;20208;-82
2021/11/07 00:03:47;;;;;;;5.55;4.45;;;;;;;;;;5077325;28;20207;-82
2021/11/07 00:06:20;;;;;;;5.80;5.25;;;;;;;;;;5077608;28;20201;-81
2021/11/07 00:08:54;;;;;;;4.47;4.07;;;;;;;;;;5077465;28;20189;-82
2021/11/07 00:11:25;;;;;;;6.68;4.63;;;;;;;;;;5077694;28;20193;-82
2021/11/07 00:13:53;;;;;;;6.43;4.47;;;;;;;;;;5076980;28;20587;-82
2021/11/07 00:16:26;;;;;;;4.45;4.05;;;;;;;;;;5077066;28;20185;-81
2021/11/07 00:21:42;;;;;;;4.75;4.10;;;;;;;;;;5073499;28;20189;-83
2021/11/07 00:24:13;;;;;;;3.70;3.40;;;;;;;;;;5077246;28;20275;-82
2021/11/07 00:26:51;;;;;;;4.15;3.50;;;;;;;;;;5077790;28;20237;-82
2021/11/07 00:29:21;;;;;;;3.92;3.30;;;;;;;;;;5077046;28;20267;-81
2021/11/07 00:31:54;;;;;;;6.43;4.75;;;;;;;;;;5076260;28;20230;-82
2021/11/07 00:35:04;;;;;;;5.78;4.57;;;;;;;;;;5076810;28;20228;-82
2021/11/07 00:37:33;;;;;;;4.05;3.72;;;;;;;;;;5077188;28;20624;-82
2021/11/07 00:42:51;;;;;;;3.28;3.03;;;;;;;;;;5076706;28;20193;-82
2021/11/07 00:45:28;;;;;;;4.82;4.43;;;;;;;;;;5076853;28;20316;-82
2021/11/07 00:48:09;;;;;;;4.25;3.85;;;;;;;;;;5076696;28;20181;-81
2021/11/07 00:50:45;;;;;;;4.68;4.28;;;;;;;;;;5076746;28;20189;-82
2021/11/07 00:53:24;;;;;;;5.25;4.22;;;;;;;;;;5076749;28;20693;-82
2021/11/07 00:55:55;;;;;;;3.20;2.90;;;;;;;;;;5076491;28;20604;-82
2021/11/07 00:58:33;;;;;;;5.43;4.93;;;;;;;;;;5076184;28;20201;-82
2021/11/07 01:01:03;;;;;;;4.68;4.18;;;;;;;;;;5076235;28;20189;-82
2021/11/07 01:03:32;;;;;;;7.47;5.90;;;;;;;;;;5075921;28;20197;-82
2021/11/07 01:06:01;;;;;;;7.07;5.55;;;;;;;;;;5079070;22;20702;-84
2021/11/07 01:08:29;;;;;;;5.03;4.53;;;;;;;;;;5051816;28;20208;-86
2021/11/07 01:10:58;;;;;;;5.63;4.78;;;;;;;;;;5055044;28;20656;-86
2021/11/07 01:13:27;;;;;;;4.63;4.22;;;;;;;;;;5056547;28;20190;-86
2021/11/07 01:15:55;;;;;;;5.60;5.05;;;;;;;;;;5055012;28;20225;-86
2021/11/07 01:18:24;;;;;;;4.28;3.88;;;;;;;;;;5055399;28;20206;-86
2021/11/07 01:20:53;;;;;;;4.18;3.78;;;;;;;;;;5056869;28;20190;-88
2021/11/07 01:23:26;;;;;;;4.53;4.13;;;;;;;;;;5055053;28;20201;-87
2021/11/07 01:26:00;;;;;;;4.85;4.45;;;;;;;;;;5052657;28;20301;-83
2021/11/07 01:28:39;;;;;;;4.97;4.45;;;;;;;;;;5052282;28;20201;-85
2021/11/07 01:31:08;;;;;;;6.70;4.43;;;;;;;;;;5032707;28;20197;-86
2021/11/07 01:33:37;;;;;;;4.95;4.18;;;;;;;;;;5032963;28;20310;-85
2021/11/07 01:36:20;;;;;;;4.45;4.00;;;;;;;;;;5032308;28;20222;-86
2021/11/07 01:38:50;;;;;;;5.53;4.03;;;;;;;;;;5032308;28;20238;-85
2021/11/07 01:41:23;;;;;;;5.05;4.13;;;;;;;;;;5032903;28;20194;-87
2021/11/07 01:43:53;;;;;;;7.13;5.30;;;;;;;;;;5033792;28;20202;-86
2021/11/07 01:46:28;;;;;;;5.40;4.35;;;;;;;;;;5036596;28;20765;-85
2021/11/07 01:49:05;;;;;;;5.78;5.00;;;;;;;;;;5036482;28;20190;-85
2021/11/07 01:51:35;;;;;;;6.32;5.72;;;;;;;;;;5041349;28;20230;-84
2021/11/07 01:54:15;;;;;;;6.00;4.75;;;;;;;;;;5036897;28;20270;-85
2021/11/07 01:56:45;;;;;;;5.88;5.28;;;;;;;;;;5036851;28;20195;-85
2021/11/07 01:59:13;;;;;;;7.95;5.07;;;;;;;;;;5035931;28;20213;-84
2021/11/07 02:01:43;;;;;;;4.47;4.07;;;;;;;;;;5051495;28;20203;-87
2021/11/07 02:04:10;;;;;;;4.60;4.15;;;;;;;;;;5056334;28;20189;-84
2021/11/07 02:06:39;;;;;;;5.82;5.18;;;;;;;;;;5056415;28;20203;-86
2021/11/07 02:09:09;;;;;;;5.57;5.00;;;;;;;;;;5056814;28;20186;-85
2021/11/07 02:11:36;;;;;;;5.55;4.93;;;;;;;;;;5056789;28;20202;-85
2021/11/07 02:14:09;;;;;;;4.68;4.28;;;;;;;;;;5055800;28;20275;-86
2021/11/07 02:16:38;;;;;;;4.95;4.47;;;;;;;;;;5056169;28;20201;-87
2021/11/07 02:19:06;;;;;;;9.27;5.20;;;;;;;;;;5055636;28;20578;-85
2021/11/07 02:21:36;;;;;;;5.95;4.68;;;;;;;;;;5056224;28;20280;-86
2021/11/07 02:24:09;;;;;;;5.88;4.82;;;;;;;;;;5056805;28;20273;-85
2021/11/07 02:26:37;;;;;;;9.32;5.53;;;;;;;;;;5056224;28;20244;-85
2021/11/07 02:29:06;;;;;;;4.63;4.20;;;;;;;;;;5054674;28;20213;-86
2021/11/07 02:31:34;;;;;;;5.93;5.32;;;;;;;;;;5055834;28;20204;-85
2021/11/07 02:34:03;;;;;;;5.65;5.07;;;;;;;;;;5054588;28;20663;-86
2021/11/07 02:36:30;;;;;;;4.75;4.30;;;;;;;;;;5055219;28;20230;-85
2021/11/07 02:39:00;;;;;;;4.20;3.72;;;;;;;;;;5054841;28;20186;-85
2021/11/07 02:41:29;;;;;;;5.78;4.35;;;;;;;;;;5054533;28;20225;-85
2021/11/07 02:43:57;;;;;;;4.43;4.00;;;;;;;;;;5034966;28;20202;-85
2021/11/07 02:46:25;;;;;;;4.57;4.20;;;;;;;;;;5034607;28;20711;-87
2021/11/07 02:48:56;;;;;;;5.30;3.40;;;;;;;;;;5034803;28;20198;-85
2021/11/07 02:51:26;;;;;;;3.92;3.53;;;;;;;;;;5034842;28;20187;-85
2021/11/07 02:53:55;;;;;;;4.13;3.70;;;;;;;;;;5034388;28;20175;-85
2021/11/07 02:56:25;;;;;;;3.50;3.20;;;;;;;;;;5035423;28;20707;-86
2021/11/07 02:58:53;;;;;;;2.85;2.65;;;;;;;;;;5034937;28;20202;-84
2021/11/07 03:01:22;;;;;;;2.75;2.45;;;;;;;;;;5035809;28;20214;-86
2021/11/07 03:03:51;;;;;;;2.88;2.17;;;;;;;;;;5035218;28;20282;-85
2021/11/07 03:06:19;;;;;;;3.38;2.40;;;;;;;;;;5035312;28;20231;-85
2021/11/07 03:08:51;;;;;;;2.28;2.08;;;;;;;;;;5045084;28;20190;-85
2021/11/07 03:11:19;;;;;;;2.80;2.60;;;;;;;;;;5055203;28;20249;-86
2021/11/07 03:13:58;;;;;;;2.13;1.85;;;;;;;;;;5044244;28;20264;-86
2021/11/07 03:16:27;;;;;;;2.60;2.40;;;;;;;;;;5034689;28;20268;-86
2021/11/07 03:18:55;;;;;;;2.40;2.13;;;;;;;;;;5035097;28;20209;-86
2021/11/07 03:21:27;;;;;;;1.92;1.80;;;;;;;;;;5034778;28;20194;-88
2021/11/07 03:23:57;;;;;;;1.90;1.80;;;;;;;;;;5034933;28;20695;-86
2021/11/07 03:26:28;;;;;;;2.20;2.00;;;;;;;;;;5049886;28;20268;-85
2021/11/07 03:29:01;;;;;;;2.17;1.98;;;;;;;;;;5037325;28;20271;-85
2021/11/07 03:31:46;;;;;;;2.13;2.03;;;;;;;;;;5055224;28;20230;-86
2021/11/07 03:34:18;;;;;;;2.00;1.90;;;;;;;;;;5055500;28;20201;-85
2021/11/07 03:36:50;;;;;;;1.63;1.52;;;;;;;;;;5056017;28;20218;-85
2021/11/07 03:39:27;;;;;;;1.48;1.38;;;;;;;;;;5055131;28;20611;-86
2021/11/07 03:41:58;;;;;;;1.83;1.73;;;;;;;;;;5055804;28;20192;-87
2021/11/07 03:44:27;;;;;;;2.40;2.20;;;;;;;;;;5054903;28;20551;-86
2021/11/07 03:46:57;;;;;;;2.55;2.20;;;;;;;;;;5054395;28;20187;-85
2021/11/07 03:49:26;;;;;;;2.00;1.90;;;;;;;;;;5053762;28;20190;-87
2021/11/07 03:51:55;;;;;;;1.83;1.73;;;;;;;;;;5054763;28;20186;-86
2021/11/07 03:54:23;;;;;;;2.10;2.00;;;;;;;;;;5054545;28;20186;-88
2021/11/07 03:56:51;;;;;;;1.50;1.40;;;;;;;;;;5053886;28;20236;-87
2021/11/07 03:59:21;;;;;;;2.00;1.88;;;;;;;;;;5054685;28;20193;-86
2021/11/07 04:01:50;;;;;;;1.73;1.63;;;;;;;;;;5054503;28;20279;-86
2021/11/07 04:04:19;;;;;;;1.70;1.60;;;;;;;;;;5053617;28;20275;-86
2021/11/07 04:06:47;;;;;;;1.85;1.75;;;;;;;;;;5033304;28;20194;-86
2021/11/07 04:09:16;;;;;;;2.33;1.73;;;;;;;;;;5034361;28;20195;-86
2021/11/07 04:11:44;;;;;;;2.13;1.92;;;;;;;;;;5033995;28;20210;-85
2021/11/07 04:14:13;;;;;;;1.50;1.40;;;;;;;;;;5034042;28;20633;-86
2021/11/07 04:16:49;;;;;;;2.20;2.00;;;;;;;;;;5018880;28;20214;-85
2021/11/07 04:19:24;;;;;;;1.75;1.63;;;;;;;;;;5014287;28;20195;-85
2021/11/07 04:22:03;;;;;;;1.95;1.80;;;;;;;;;;5015086;28;20720;-86
2021/11/07 04:24:30;;;;;;;1.48;1.38;;;;;;;;;;5014133;28;20227;-85
2021/11/07 04:26:59;;;;;;;1.30;1.23;;;;;;;;;;5013635;28;20472;-85
2021/11/07 04:29:36;;;;;;;2.50;1.92;;;;;;;;;;5013950;28;20211;-87
2021/11/07 04:32:06;;;;;;;2.40;2.20;;;;;;;;;;5014120;28;20206;-84
2021/11/07 04:34:35;;;;;;;2.38;1.80;;;;;;;;;;5014206;28;20606;-86
2021/11/07 04:37:07;;;;;;;1.50;1.40;;;;;;;;;;5014424;28;20207;-85
2021/11/07 04:39:36;;;;;;;2.22;2.03;;;;;;;;;;5014553;28;20276;-84
2021/11/07 04:42:05;;;;;;;2.33;2.20;;;;;;;;;;5014807;28;20197;-86
2021/11/07 04:44:32;;;;;;;1.83;1.73;;;;;;;;;;5014911;28;20223;-86
2021/11/07 04:47:08;;;;;;;2.15;1.85;;;;;;;;;;5014809;28;20198;-85
2021/11/07 04:49:39;;;;;;;1.70;1.60;;;;;;;;;;5013955;28;20180;-85
2021/11/07 04:52:07;;;;;;;1.73;1.63;;;;;;;;;;5015333;28;20568;-84
2021/11/07 04:54:35;;;;;;;1.88;1.77;;;;;;;;;;5014486;28;20227;-85
2021/11/07 04:57:10;;;;;;;2.17;1.80;;;;;;;;;;5014319;28;20863;-87
2021/11/07 04:59:39;;;;;;;2.17;2.08;;;;;;;;;;5014595;28;20209;-85
2021/11/07 05:02:13;;;;;;;2.08;1.90;;;;;;;;;;5014144;28;20651;-85
2021/11/07 05:04:41;;;;;;;2.03;1.60;;;;;;;;;;5016140;28;20237;-85
2021/11/07 05:07:10;;;;;;;3.50;3.10;;;;;;;;;;5033801;28;20591;-84
2021/11/07 05:09:37;;;;;;;1.67;1.58;;;;;;;;;;5033727;28;20190;-86
2021/11/07 05:12:06;;;;;;;1.60;1.50;;;;;;;;;;5033239;28;20198;-84
2021/11/07 05:14:35;;;;;;;1.70;1.60;;;;;;;;;;5033089;28;20218;-85
2021/11/07 05:17:02;;;;;;;1.85;1.73;;;;;;;;;;5034174;28;20211;-85
2021/11/07 05:19:33;;;;;;;2.13;1.92;;;;;;;;;;5033174;28;20183;-85
2021/11/07 05:22:00;;;;;;;1.70;1.60;;;;;;;;;;5033816;28;20191;-84
2021/11/07 05:24:28;;;;;;;2.20;2.00;;;;;;;;;;5033344;28;20187;-86
2021/11/07 05:26:55;;;;;;;1.77;1.67;;;;;;;;;;5033803;28;20183;-85
2021/11/07 05:29:23;;;;;;;1.88;1.77;;;;;;;;;;5033979;28;20202;-85
2021/11/07 05:31:50;;;;;;;1.90;1.80;;;;;;;;;;5031641;28;20565;-86
2021/11/07 05:34:20;;;;;;;2.47;1.98;;;;;;;;;;5033368;28;20648;-86
2021/11/07 05:36:51;;;;;;;2.65;1.75;;;;;;;;;;5033403;28;20593;-85
2021/11/07 05:39:19;;;;;;;2.22;2.03;;;;;;;;;;5033326;28;20197;-86
2021/11/07 05:41:54;;;;;;;2.03;1.83;;;;;;;;;;5034054;28;20644;-86
2021/11/07 05:44:23;;;;;;;1.98;1.88;;;;;;;;;;5032817;28;20202;-85
2021/11/07 05:46:52;;;;;;;2.35;2.05;;;;;;;;;;5033485;28;20670;-87
2021/11/07 05:49:21;;;;;;;2.95;2.08;;;;;;;;;;5031178;28;20196;-86
2021/11/07 05:51:50;;;;;;;2.05;1.92;;;;;;;;;;5030404;28;20206;-86
2021/11/07 05:54:18;;;;;;;2.10;2.00;;;;;;;;;;5046036;28;20203;-86
2021/11/07 05:56:47;;;;;;;2.30;2.10;;;;;;;;;;5065864;28;20576;-86
2021/11/07 05:59:15;;;;;;;2.05;1.85;;;;;;;;;;5033204;28;20640;-86
2021/11/07 06:01:43;;;;;;;2.05;1.95;;;;;;;;;;5055299;28;20830;-86
2021/11/07 06:04:10;;;;;;;1.52;1.42;;;;;;;;;;5070881;28;20205;-86
2021/11/07 06:06:38;;;;;;;1.95;1.85;;;;;;;;;;5068547;28;20240;-86
2021/11/07 06:09:08;;;;;;;2.10;1.95;;;;;;;;;;5058985;28;20566;-87
2021/11/07 06:11:37;;;;;;;2.00;1.90;;;;;;;;;;5033437;28;20575;-86
2021/11/07 06:14:05;;;;;;;4.00;2.60;;;;;;;;;;5031046;28;20209;-86
2021/11/07 06:16:33;;;;;;;2.10;1.90;;;;;;;;;;5031252;28;20230;-86
2021/11/07 06:19:01;;;;;;;2.53;2.33;;;;;;;;;;5030964;28;20191;-85
2021/11/07 06:21:37;;;;;;;2.92;2.72;;;;;;;;;;5031587;28;20202;-86
2021/11/07 06:24:10;;;;;;;2.67;2.47;;;;;;;;;;5031780;28;20285;-86
2021/11/07 06:26:39;;;;;;;2.78;2.55;;;;;;;;;;5038508;28;20659;-86
2021/11/07 06:29:09;;;;;;;3.20;3.00;;;;;;;;;;5052236;28;20571;-86
2021/11/07 06:31:37;;;;;;;2.72;2.50;;;;;;;;;;5058824;28;20189;-86
2021/11/07 06:34:06;;;;;;;2.08;1.98;;;;;;;;;;5072198;28;20227;-86
2021/11/07 06:36:39;;;;;;;3.22;2.92;;;;;;;;;;5067271;28;20228;-86
2021/11/07 06:39:10;;;;;;;2.85;2.63;;;;;;;;;;5055564;28;20210;-87
2021/11/07 06:41:40;;;;;;;2.92;2.72;;;;;;;;;;5036095;28;20190;-86
2021/11/07 06:44:08;;;;;;;2.63;2.42;;;;;;;;;;5035782;28;20613;-86
2021/11/07 06:46:37;;;;;;;3.55;3.25;;;;;;;;;;5038260;28;20198;-84
2021/11/07 06:49:13;;;;;;;2.95;2.67;;;;;;;;;;5064859;28;20208;-86
2021/11/07 06:51:42;;;;;;;3.95;2.85;;;;;;;;;;5068069;28;20188;-86
2021/11/07 06:54:12;;;;;;;3.55;3.25;;;;;;;;;;5076385;28;20716;-86
2021/11/07 06:56:43;;;;;;;4.25;3.20;;;;;;;;;;5062071;28;20227;-86
2021/11/07 06:59:13;;;;;;;3.63;2.70;;;;;;;;;;5043564;28;20755;-85
2021/11/07 07:01:41;;;;;;;3.78;3.05;;;;;;;;;;5035401;28;20285;-84
2021/11/07 07:04:10;;;;;;;4.78;4.38;;;;;;;;;;5035682;28;20204;-86
2021/11/07 07:06:39;;;;;;;3.13;2.92;;;;;;;;;;5035523;28;20230;-86
2021/11/07 07:09:13;;;;;;;4.18;3.78;;;;;;;;;;5035668;28;20237;-86
2021/11/07 07:11:44;;;;;;;3.50;3.20;;;;;;;;;;5035303;28;20277;-86
2021/11/07 07:14:18;;;;;;;3.55;3.25;;;;;;;;;;5035503;28;20198;-87
2021/11/07 07:16:55;;;;;;;5.47;4.40;;;;;;;;;;5035415;28;20202;-86
2021/11/07 07:28:14;;;;;;;3.88;3.55;;;;;;;;;;5035037;28;20229;-86
2021/11/07 07:31:20;;;;;;;3.92;3.53;;;;;;;;;;5035227;28;20249;-86
2021/11/07 07:33:50;;;;;;;3.22;2.95;;;;;;;;;;5045427;23;20236;-82
2021/11/07 07:36:18;;;;;;;4.53;4.13;;;;;;;;;;5014541;28;20242;-83
2021/11/07 07:38:45;;;;;;;4.05;3.75;;;;;;;;;;5022541;28;20222;-84
2021/11/07 07:41:14;;;;;;;5.22;4.82;;;;;;;;;;5032352;28;20195;-84
2021/11/07 07:43:41;;;;;;;4.60;4.20;;;;;;;;;;5033445;28;20598;-83
2021/11/07 07:46:12;;;;;;;5.55;5.05;;;;;;;;;;5033485;28;20562;-83
2021/11/07 07:48:42;;;;;;;5.03;4.53;;;;;;;;;;5033132;28;20198;-82
2021/11/07 07:51:12;;;;;;;5.70;4.38;;;;;;;;;;5033789;28;20606;-82
2021/11/07 07:53:41;;;;;;;4.00;3.67;;;;;;;;;;5033602;28;20226;-83
2021/11/07 07:56:09;;;;;;;4.18;3.85;;;;;;;;;;5033929;28;20187;-83
2021/11/07 07:58:40;;;;;;;4.15;3.75;;;;;;;;;;5033984;28;20206;-82
2021/11/07 08:01:09;;;;;;;3.85;3.55;;;;;;;;;;5030130;28;20209;-83
2021/11/07 08:03:37;;;;;;;4.50;4.10;;;;;;;;;;5012961;28;20215;-83
2021/11/07 08:06:04;;;;;;;3.92;3.63;;;;;;;;;;5014051;28;20203;-84
2021/11/07 08:08:32;;;;;;;4.40;4.00;;;;;;;;;;5028255;28;20187;-85
2021/11/07 08:11:00;;;;;;;4.70;4.30;;;;;;;;;;5033178;28;20234;-83
2021/11/07 08:13:28;;;;;;;4.20;3.83;;;;;;;;;;5033240;28;20218;-83
2021/11/07 08:15:57;;;;;;;4.32;3.90;;;;;;;;;;5033829;28;20213;-84
2021/11/07 08:18:24;;;;;;;4.30;3.45;;;;;;;;;;5033644;28;20222;-84
2021/11/07 08:20:52;;;;;;;3.50;3.20;;;;;;;;;;5033359;28;20217;-83
2021/11/07 08:23:22;;;;;;;4.28;3.88;;;;;;;;;;5032878;28;20214;-84
2021/11/07 08:25:50;;;;;;;3.20;3.00;;;;;;;;;;5033036;28;20189;-83
2021/11/07 08:28:21;;;;;;;3.13;2.85;;;;;;;;;;5018615;28;20192;-87
2021/11/07 08:30:53;;;;;;;3.40;3.17;;;;;;;;;;5031806;28;20187;-83
2021/11/07 08:33:22;;;;;;;3.40;3.10;;;;;;;;;;5032970;28;20288;-83
2021/11/07 08:35:50;;;;;;;2.78;2.58;;;;;;;;;;5033385;28;20202;-83
2021/11/07 08:38:20;;;;;;;3.85;3.55;;;;;;;;;;5033458;28;20206;-83
2021/11/07 08:40:50;;;;;;;3.50;3.20;;;;;;;;;;5033191;28;20197;-83
2021/11/07 09:00:15;;;;;;;2.08;1.88;;;;;;;;;;5027499;28;20224;-83
2021/11/07 09:00:27;;;;;;;1.40;1.30;;;;;;;;;;4989773;28;20695;-82
2021/11/07 09:08:32;;;;;;;6.80;6.20;;;;;;;;;;4976050;28;20192;-84
2021/11/07 09:11:02;;;;;;;3.08;2.78;;;;;;;;;;5032685;28;20190;-85
2021/11/07 09:13:30;;;;;;;2.45;2.25;;;;;;;;;;5033033;28;20214;-83
2021/11/07 09:15:59;;;;;;;1.60;1.50;;;;;;;;;;5032787;28;20293;-84
2021/11/07 09:18:27;;;;;;;1.52;1.50;;;;;;;;;;5032614;28;20187;-85
2021/11/07 09:21:04;;;;;;;2.08;1.90;;;;;;;;;;5032995;28;20263;-84
2021/11/07 09:23:35;;;;;;;3.65;3.20;;;;;;;;;;5033121;28;20236;-83
2021/11/07 09:26:18;;;;;;;2.28;2.08;;;;;;;;;;5033305;28;20269;-83
2021/11/07 09:28:49;;;;;;;2.40;2.20;;;;;;;;;;5032228;28;20267;-84
2021/11/07 09:31:27;;;;;;;1.60;1.50;;;;;;;;;;5032315;28;20581;-84
2021/11/07 09:34:06;;;;;;;1.85;1.75;;;;;;;;;;5032065;28;20289;-84
2021/11/07 09:36:39;;;;;;;1.30;1.20;;;;;;;;;;5032256;28;20552;-84
2021/11/07 09:39:18;;;;;;;1.58;1.48;;;;;;;;;;5031665;28;20707;-85
2021/11/07 09:42:15;;;;;;;1.77;1.67;;;;;;;;;;5032902;28;20206;-84
2021/11/07 09:44:44;;;;;;;2.10;2.00;;;;;;;;;;5031666;28;20237;-82
2021/11/07 09:47:14;;;;;;;2.05;1.90;;;;;;;;;;5033050;28;20258;-84
2021/11/07 09:49:46;;;;;;;2.55;2.35;;;;;;;;;;5031206;28;20206;-83
2021/11/07 09:52:24;;;;;;;3.40;3.10;;;;;;;;;;5032106;28;20249;-83
2021/11/07 09:54:58;;;;;;;2.42;2.22;;;;;;;;;;5031842;28;20201;-83
2021/11/07 09:57:27;;;;;;;2.80;2.60;;;;;;;;;;5031543;28;20209;-83
2021/11/07 09:59:57;;;;;;;2.03;1.92;;;;;;;;;;5031067;28;20306;-83
2021/11/07 10:02:26;;;;;;;2.47;2.30;;;;;;;;;;5032240;28;20229;-84
2021/11/07 10:04:55;;;;;;;3.05;2.85;;;;;;;;;;5034795;28;20191;-84
2021/11/07 10:07:28;;;;;;;2.85;2.65;;;;;;;;;;5036243;28;20183;-83
2021/11/07 10:09:58;;;;;;;3.75;3.10;;;;;;;;;;5036152;28;20191;-84
2021/11/07 10:12:34;;;;;;;2.47;2.28;;;;;;;;;;5036287;28;20222;-84
2021/11/07 10:15:05;;;;;;;3.03;2.78;;;;;;;;;;5035654;28;20660;-84
2021/11/07 10:17:39;;;;;;;3.22;3.03;;;;;;;;;;5017761;28;20199;-84
2021/11/07 10:20:19;;;;;;;5.45;4.22;;;;;;;;;;5016997;28;20222;-84
2021/11/07 10:22:53;;;;;;;2.60;2.40;;;;;;;;;;5017353;28;20229;-84
2021/11/07 10:25:24;;;;;;;2.55;2.35;;;;;;;;;;5017960;28;20238;-83
2021/11/07 10:27:55;;;;;;;2.95;2.70;;;;;;;;;;5034905;28;20252;-82
2021/11/07 10:30:23;;;;;;;2.97;2.03;;;;;;;;;;5037812;28;20238;-84
2021/11/07 10:33:02;;;;;;;6.38;2.67;;;;;;;;;;5036447;28;20254;-82
2021/11/07 10:47:24;;;;;;;2.00;1.58;;;;;;;;;;5003351;28;20199;-83
2021/11/07 10:52:42;;;;;;;1.05;1.05;;;;;;;;;;5036844;28;21086;-84
2021/11/07 10:55:18;;;;;;;1.02;1.02;;;;;;;;;;5037741;28;20201;-84
2021/11/07 10:57:48;;;;;;;4.50;1.65;;;;;;;;;;5037060;28;20198;-84
2021/11/07 11:00:24;;;;;;;3.00;1.75;;;;;;;;;;5036715;28;20210;-84
2021/11/07 11:02:55;;;;;;;1.40;1.13;;;;;;;;;;5036300;28;20692;-85
2021/11/07 11:05:26;;;;;;;3.63;2.25;;;;;;;;;;5034000;28;20202;-85
2021/11/07 11:08:01;;;;;;;2.10;1.65;;;;;;;;;;5036235;28;20194;-84
2021/11/07 11:10:39;;;;;;;1.40;1.30;;;;;;;;;;5036712;28;20760;-84
2021/11/07 11:13:18;;;;;;;2.95;1.70;;;;;;;;;;5034053;28;20254;-84
2021/11/07 11:21:49;;;;;;;1.75;1.60;;;;;;;;;;5035581;28;20612;-84
2021/11/07 11:24:27;;;;;;;6.20;2.25;;;;;;;;;;5036932;28;20218;-83
2021/11/07 11:27:07;;;;;;;2.30;1.80;;;;;;;;;;5036828;28;20210;-83
2021/11/07 11:29:48;;;;;;;4.38;2.70;;;;;;;;;;5016671;28;20195;-85
2021/11/07 11:32:21;;;;;;;4.63;2.80;;;;;;;;;;5021654;28;20269;-85
2021/11/07 11:34:55;;;;;;;5.93;2.80;;;;;;;;;;5036128;28;20233;-85
2021/11/07 11:37:27;;;;;;;3.85;2.58;;;;;;;;;;5035856;28;20194;-84
2021/11/07 11:40:02;;;;;;;4.20;2.38;;;;;;;;;;5036523;28;20687;-85
2021/11/07 11:42:37;;;;;;;5.35;2.47;;;;;;;;;;5035402;28;20218;-84
2021/11/07 11:45:07;;;;;;;7.28;3.05;;;;;;;;;;5035628;28;20209;-84
2021/11/07 11:47:59;;;;;;;2.08;1.73;;;;;;;;;;5035845;28;20289;-85
2021/11/07 11:53:22;;;;;;;3.00;2.42;;;;;;;;;;5022440;28;20222;-85
2021/11/07 11:55:54;;;;;;;3.95;2.83;;;;;;;;;;5035276;28;20251;-84
2021/11/07 11:58:45;;;;;;;3.65;2.00;;;;;;;;;;5036035;28;20230;-83
2021/11/07 12:01:18;;;;;;;2.40;2.10;;;;;;;;;;5028942;28;20269;-84
2021/11/07 12:04:06;;;;;;;3.28;1.77;;;;;;;;;;5016455;28;20222;-84
2021/11/07 12:06:45;;;;;;;4.70;2.55;;;;;;;;;;5016156;28;20203;-84
2021/11/07 12:09:26;;;;;;;11.27;2.53;;;;;;;;;;5016142;28;20218;-85
2021/11/07 12:11:58;;;;;;;3.30;2.33;;;;;;;;;;5026224;28;20656;-84
2021/11/07 12:14:35;;;;;;;3.53;2.92;;;;;;;;;;5035423;28;20202;-84
2021/11/07 12:17:07;;;;;;;3.80;2.72;;;;;;;;;;5032567;28;20224;-84
2021/11/07 12:19:39;;;;;;;5.45;2.42;;;;;;;;;;5035585;28;20257;-83
2021/11/07 12:22:13;;;;;;;3.83;2.53;;;;;;;;;;5025801;28;20221;-83
2021/11/07 12:25:10;;;;;;;7.47;2.85;;;;;;;;;;5030278;28;20241;-84
2021/11/07 12:27:43;;;;;;;2.63;2.10;;;;;;;;;;5035257;28;20198;-83
2021/11/07 12:30:26;;;;;;;3.75;2.47;;;;;;;;;;5036681;28;20182;-83
2021/11/07 12:33:07;;;;;;;9.02;2.70;;;;;;;;;;5035699;28;20252;-83
2021/11/07 12:35:38;;;;;;;5.07;3.00;;;;;;;;;;5035677;28;20206;-83
2021/11/07 12:41:07;;;;;;;3.80;2.83;;;;;;;;;;5035480;28;20282;-84
2021/11/07 12:43:40;;;;;;;4.18;2.60;;;;;;;;;;5035042;28;20214;-84
2021/11/07 12:46:25;;;;;;;2.17;1.90;;;;;;;;;;5035270;28;20199;-84
2021/11/07 12:48:55;;;;;;;4.40;2.92;;;;;;;;;;5035015;28;20614;-84
2021/11/07 12:51:39;;;;;;;3.78;2.50;;;;;;;;;;5034881;28;20215;-83
2021/11/07 12:54:13;;;;;;;3.67;2.50;;;;;;;;;;5035575;28;20229;-84
2021/11/07 12:56:54;;;;;;;3.67;2.35;;;;;;;;;;5036275;28;20621;-85
2021/11/07 12:59:33;;;;;;;3.53;2.00;;;;;;;;;;5035996;28;20193;-84
2021/11/07 13:02:29;;;;;;;4.22;2.72;;;;;;;;;;5036040;28;20607;-83
2021/11/07 13:05:01;;;;;;;2.50;1.75;;;;;;;;;;5035572;28;20187;-84
2021/11/07 13:07:34;;;;;;;4.85;2.40;;;;;;;;;;5034668;28;20199;-84
2021/11/07 13:10:11;;;;;;;4.43;2.50;;;;;;;;;;5034840;28;20190;-85
2021/11/07 13:12:44;;;;;;;3.38;2.13;;;;;;;;;;5034432;28;20647;-85
2021/11/07 13:15:37;;;;;;;2.15;1.75;;;;;;;;;;5034122;28;20856;-82
2021/11/07 13:18:32;;;;;;;5.60;1.90;;;;;;;;;;5034218;28;20600;-84
2021/11/07 13:29:34;;;;;;;5.43;2.47;;;;;;;;;;5012124;28;20293;-83
2021/11/07 13:32:22;;;;;;;1.90;1.55;;;;;;;;;;5035462;28;20194;-84
2021/11/07 13:35:09;;;;;;;3.72;1.70;;;;;;;;;;5023261;28;20665;-81
2021/11/07 13:37:41;;;;;;;6.82;2.85;;;;;;;;;;5036588;28;20235;-82
2021/11/07 13:40:25;;;;;;;3.05;2.20;;;;;;;;;;5036575;28;20563;-82
2021/11/07 13:42:53;;;;;;;5.35;2.53;;;;;;;;;;5036586;28;20230;-82
2021/11/07 13:45:29;;;;;;;2.85;1.50;;;;;;;;;;5036558;28;20208;-82
2021/11/07 13:48:00;;;;;;;1.67;1.40;;;;;;;;;;5032817;28;20260;-83
2021/11/07 13:50:32;;;;;;;2.15;1.88;;;;;;;;;;5035825;28;20681;-82
2021/11/07 13:53:00;;;;;;;2.25;1.92;;;;;;;;;;5036751;28;20218;-83
2021/11/07 13:55:30;;;;;;;4.10;2.97;;;;;;;;;;5036876;28;20210;-84
2021/11/07 13:58:12;;;;;;;3.20;1.88;;;;;;;;;;5035611;28;20206;-82
2021/11/07 14:00:40;;;;;;;4.40;2.53;;;;;;;;;;5036402;28;20187;-82
2021/11/07 14:03:12;;;;;;;2.65;2.10;;;;;;;;;;5035686;28;20237;-82
2021/11/07 14:05:50;;;;;;;4.35;2.67;;;;;;;;;;5036491;28;20202;-82
2021/11/07 14:08:17;;;;;;;3.28;2.22;;;;;;;;;;5036237;28;20202;-82
2021/11/07 14:10:45;;;;;;;4.07;2.20;;;;;;;;;;5039217;28;20281;-82
2021/11/07 14:13:16;;;;;;;5.85;2.40;;;;;;;;;;5035545;28;20226;-83
2021/11/07 14:15:45;;;;;;;7.10;3.45;;;;;;;;;;5034773;28;20191;-83
2021/11/07 14:18:16;;;;;;;2.33;1.80;;;;;;;;;;5036769;28;20190;-82
2021/11/07 14:20:49;;;;;;;4.90;2.50;;;;;;;;;;5037233;28;20191;-82
2021/11/07 14:23:27;;;;;;;2.30;1.42;;;;;;;;;;5036699;28;20230;-83
2021/11/07 14:26:05;;;;;;;2.85;1.85;;;;;;;;;;5036866;28;20265;-83
2021/11/07 14:28:38;;;;;;;2.40;1.90;;;;;;;;;;5036289;28;20186;-82
2021/11/07 14:31:14;;;;;;;6.30;2.15;;;;;;;;;;5036456;28;20594;-83
2021/11/07 14:33:49;;;;;;;2.97;2.00;;;;;;;;;;5036265;28;20664;-83
2021/11/07 14:39:11;;;;;;;2.28;1.60;;;;;;;;;;5033809;28;20285;-84
2021/11/07 14:41:45;;;;;;;3.10;1.98;;;;;;;;;;5036453;28;20214;-84
2021/11/07 14:44:31;;;;;;;5.70;2.00;;;;;;;;;;5033588;28;20223;-84
2021/11/07 14:47:20;;;;;;;2.33;1.63;;;;;;;;;;5036110;28;20607;-84
2021/11/07 14:50:07;;;;;;;3.22;2.53;;;;;;;;;;5036437;28;20281;-82
2021/11/07 14:52:50;;;;;;;7.03;3.35;;;;;;;;;;5040037;28;20666;-84
2021/11/07 14:55:23;;;;;;;5.93;2.20;;;;;;;;;;5040731;28;20191;-84
2021/11/07 14:58:29;;;;;;;3.58;1.60;;;;;;;;;;5040468;28;20686;-84
2021/11/07 15:01:24;;;;;;;3.28;2.10;;;;;;;;;;5037609;28;20669;-84
2021/11/07 15:04:01;;;;;;;7.20;2.35;;;;;;;;;;5040692;28;20222;-84
2021/11/07 15:06:35;;;;;;;1.95;1.50;;;;;;;;;;5040352;28;20282;-84
2021/11/07 15:09:13;;;;;;;3.25;1.65;;;;;;;;;;5040141;28;20198;-84
2021/11/07 15:12:05;;;;;;;2.75;2.20;;;;;;;;;;5039761;28;20206;-84
2021/11/07 15:14:50;;;;;;;3.55;1.92;;;;;;;;;;5040656;28;20245;-84
2021/11/07 15:17:31;;;;;;;1.75;1.65;;;;;;;;;;5039887;28;20213;-84
2021/11/07 15:20:21;;;;;;;2.10;1.67;;;;;;;;;;5040960;28;20226;-84
2021/11/07 15:22:51;;;;;;;4.18;2.58;;;;;;;;;;5033147;28;20295;-85
2021/11/07 15:25:27;;;;;;;3.90;1.90;;;;;;;;;;5034255;28;20209;-85
2021/11/07 15:28:01;;;;;;;4.72;2.47;;;;;;;;;;5031205;28;20203;-84
2021/11/07 15:30:30;;;;;;;7.07;2.92;;;;;;;;;;5021307;28;20579;-85
2021/11/07 15:33:09;;;;;;;3.05;2.33;;;;;;;;;;5026432;28;20226;-85
2021/11/07 15:35:37;;;;;;;2.72;2.20;;;;;;;;;;5040926;28;20574;-85
2021/11/07 15:38:14;;;;;;;4.75;2.17;;;;;;;;;;5041065;28;20194;-85
2021/11/07 15:40:43;;;;;;;2.53;1.55;;;;;;;;;;5040043;28;20636;-85
2021/11/07 15:43:18;;;;;;;1.30;1.20;;;;;;;;;;5041085;28;20223;-84
2021/11/07 15:45:57;;;;;;;8.48;7.05;;;;;;;;;;5041066;28;20703;-84
2021/11/07 15:48:27;;;;;;;3.75;2.17;;;;;;;;;;5040539;28;20278;-84
2021/11/07 15:50:59;;;;;;;4.00;1.88;;;;;;;;;;5040092;28;20328;-84
2021/11/07 15:53:30;;;;;;;3.22;1.85;;;;;;;;;;5040593;28;20743;-84
2021/11/07 15:56:07;;;;;;;2.70;1.77;;;;;;;;;;5040204;28;20638;-84
2021/11/07 15:58:53;;;;;;;2.53;1.52;;;;;;;;;;5050727;28;20197;-83
2021/11/07 16:01:29;;;;;;;1.73;1.63;;;;;;;;;;5053543;28;20198;-83
2021/11/07 16:04:05;;;;;;;2.97;1.95;;;;;;;;;;5052846;28;20630;-83
2021/11/07 16:06:48;;;;;;;3.20;2.20;;;;;;;;;;5053590;28;20201;-84
2021/11/07 16:12:09;;;;;;;3.60;1.73;;;;;;;;;;5037375;28;20266;-84
2021/11/07 16:14:49;;;;;;;4.28;2.03;;;;;;;;;;5053618;28;20197;-83
2021/11/07 16:17:19;;;;;;;4.22;2.15;;;;;;;;;;5052332;28;20194;-83
2021/11/07 16:19:47;;;;;;;1.83;1.63;;;;;;;;;;5050677;28;20190;-83
2021/11/07 16:22:18;;;;;;;2.35;1.30;;;;;;;;;;5052282;28;20206;-83
2021/11/07 16:24:46;;;;;;;2.15;1.60;;;;;;;;;;5046787;28;20206;-83
2021/11/07 16:27:17;;;;;;;2.08;1.67;;;;;;;;;;5051655;28;20194;-84
2021/11/07 16:29:45;;;;;;;2.47;1.70;;;;;;;;;;5052980;28;20218;-83
2021/11/07 16:32:15;;;;;;;5.80;2.78;;;;;;;;;;5049289;28;20199;-83